Time;durP1;ratioP1;P1;durP2;ratioP2;P2;SDS_P1;SDS_P2;PMS_P1;PMS_P2;Temp;Humidity;BMP_temperature;BMP_pressure;BME280_temperature;BME280_humidity;BME280_pressure;Samples;Min_cycle;Max_cycle;Signal;HPM_P1;HPM_P2
2022/05/16 00:03:02;;;;;;;2.50;2.27;;;19.70;24.40;;;;;;10360234;28;20234;-74
2022/05/16 00:08:07;;;;;;;3.80;2.90;;;19.70;25.10;;;;;;10358490;28;20231;-74
2022/05/16 00:13:10;;;;;;;3.07;2.50;;;19.70;25.10;;;;;;10358232;28;20230;-74
2022/05/16 00:18:14;;;;;;;3.03;2.73;;;19.60;24.50;;;;;;10359796;28;20226;-74
2022/05/16 00:23:18;;;;;;;2.67;2.47;;;19.60;24.60;;;;;;10357649;28;20236;-74
2022/05/16 00:28:21;;;;;;;3.07;2.77;;;19.60;25.00;;;;;;10356676;28;21688;-74
2022/05/16 00:33:24;;;;;;;4.27;3.10;;;19.50;24.80;;;;;;10364394;28;20234;-74
2022/05/16 00:38:29;;;;;;;2.90;2.70;;;19.40;24.90;;;;;;10358447;28;20230;-74
2022/05/16 00:43:51;;;;;;;3.57;2.80;;;19.20;24.80;;;;;;10358741;28;20230;-73
2022/05/16 00:48:54;;;;;;;2.80;2.40;;;19.00;25.30;;;;;;10360974;28;20323;-74
2022/05/16 00:54:04;;;;;;;4.23;2.90;;;18.80;24.50;;;;;;10362877;28;20706;-74
2022/05/16 00:59:08;;;;;;;3.33;3.00;;;18.60;25.90;;;;;;10363765;28;20230;-74
2022/05/16 01:09:33;;;;;;;2.87;2.60;;;18.30;25.40;;;;;;10360974;28;20237;-73
2022/05/16 01:14:47;;;;;;;3.20;2.70;;;18.20;26.00;;;;;;10365636;28;20256;-73
2022/05/16 01:19:51;;;;;;;2.53;2.33;;;18.10;26.80;;;;;;10368132;28;20226;-73
2022/05/16 01:24:59;;;;;;;2.60;2.40;;;18.10;25.80;;;;;;10371576;28;20230;-73
2022/05/16 01:30:02;;;;;;;3.67;3.00;;;18.10;26.40;;;;;;10370723;28;20218;-73
2022/05/16 01:35:06;;;;;;;2.73;2.33;;;18.20;26.00;;;;;;10371192;28;20241;-73
2022/05/16 01:40:12;;;;;;;2.60;2.40;;;18.00;26.00;;;;;;10371003;28;20308;-73
2022/05/16 01:45:15;;;;;;;3.17;2.87;;;17.90;26.70;;;;;;10370377;28;20230;-73
2022/05/16 01:50:19;;;;;;;3.00;2.80;;;17.80;26.20;;;;;;10355941;28;20710;-73
2022/05/16 01:55:23;;;;;;;3.03;2.77;;;17.80;26.30;;;;;;10369346;28;20234;-73
2022/05/16 02:00:27;;;;;;;3.13;2.90;;;17.70;27.20;;;;;;10365204;28;20219;-73
2022/05/16 02:05:30;;;;;;;3.40;3.10;;;17.60;26.40;;;;;;10365180;28;20242;-73
2022/05/16 02:10:35;;;;;;;3.43;3.13;;;17.40;26.60;;;;;;10369532;28;20233;-73
2022/05/16 02:15:40;;;;;;;2.50;2.30;;;17.10;27.30;;;;;;10367525;28;20226;-73
2022/05/16 02:20:43;;;;;;;3.30;3.00;;;16.90;27.10;;;;;;10364908;28;20230;-73
2022/05/16 02:25:48;;;;;;;3.87;2.60;;;16.80;27.40;;;;;;10368849;28;20230;-73
2022/05/16 02:30:53;;;;;;;2.80;2.60;;;16.80;28.10;;;;;;10363218;28;20984;-75
2022/05/16 02:35:58;;;;;;;2.90;2.70;;;16.90;27.80;;;;;;10364975;28;20314;-75
2022/05/16 02:41:02;;;;;;;2.73;2.53;;;16.90;27.80;;;;;;10362914;28;20222;-75
2022/05/16 02:46:06;;;;;;;2.93;2.53;;;16.90;27.80;;;;;;10359677;28;20742;-75
2022/05/16 02:51:09;;;;;;;3.53;3.00;;;16.90;27.50;;;;;;10361478;28;20236;-75
2022/05/16 02:56:14;;;;;;;3.07;2.87;;;16.90;27.70;;;;;;10360064;28;20230;-75
2022/05/16 03:01:17;;;;;;;2.80;2.60;;;16.90;28.00;;;;;;10362285;28;20234;-75
2022/05/16 03:06:20;;;;;;;3.30;3.10;;;16.90;27.60;;;;;;10359059;28;20276;-75
2022/05/16 03:11:25;;;;;;;3.30;3.10;;;16.90;27.80;;;;;;10361973;28;20257;-75
2022/05/16 03:16:29;;;;;;;5.37;3.07;;;16.90;28.30;;;;;;10363049;28;20386;-75
2022/05/16 03:21:33;;;;;;;3.37;3.07;;;16.90;28.00;;;;;;10364137;28;20233;-75
2022/05/16 03:26:38;;;;;;;2.87;2.67;;;16.80;27.90;;;;;;10362458;28;20226;-76
2022/05/16 03:31:42;;;;;;;2.83;2.63;;;16.70;28.60;;;;;;10363984;28;20242;-75
2022/05/16 03:36:45;;;;;;;2.90;2.70;;;16.60;28.20;;;;;;10354399;28;20392;-75
2022/05/16 03:41:50;;;;;;;3.20;3.00;;;16.60;28.20;;;;;;10354436;28;20737;-75
2022/05/16 03:46:53;;;;;;;2.90;2.70;;;16.60;29.00;;;;;;10356218;28;20227;-76
2022/05/16 03:51:56;;;;;;;3.50;3.20;;;16.60;28.40;;;;;;10361799;28;20582;-75
2022/05/16 03:57:00;;;;;;;3.70;3.20;;;16.60;28.60;;;;;;10362254;28;20238;-76
2022/05/16 04:02:05;;;;;;;4.43;3.70;;;16.60;29.10;;;;;;10357601;28;20227;-76
2022/05/16 04:07:09;;;;;;;4.63;3.30;;;16.50;28.80;;;;;;10356042;28;20305;-76
2022/05/16 04:12:13;;;;;;;3.43;3.20;;;16.40;29.00;;;;;;10359438;28;20227;-76
2022/05/16 04:17:16;;;;;;;3.50;3.20;;;16.40;29.40;;;;;;10358037;28;20234;-76
2022/05/16 04:22:20;;;;;;;3.47;3.17;;;16.30;29.20;;;;;;10356997;28;20230;-76
2022/05/16 04:27:24;;;;;;;3.40;3.20;;;16.30;29.40;;;;;;10358516;28;20242;-76
2022/05/16 04:32:28;;;;;;;4.43;3.57;;;16.40;30.00;;;;;;10361656;28;20249;-76
2022/05/16 04:37:32;;;;;;;4.00;3.70;;;16.40;29.60;;;;;;10354817;28;20226;-76
2022/05/16 04:42:43;;;;;;;4.37;3.23;;;16.40;29.80;;;;;;10344325;28;20304;-76
2022/05/16 04:47:51;;;;;;;3.77;3.47;;;16.50;30.50;;;;;;10353591;28;20230;-76
2022/05/16 04:52:55;;;;;;;4.27;3.60;;;16.60;31.00;;;;;;10354643;28;20232;-77
2022/05/16 04:58:00;;;;;;;3.40;3.20;;;16.60;30.20;;;;;;10354522;28;20232;-77
2022/05/16 05:03:04;;;;;;;3.97;3.53;;;16.60;30.50;;;;;;10349707;28;20241;-75
2022/05/16 05:08:07;;;;;;;5.23;3.33;;;16.70;30.60;;;;;;10350115;28;20230;-76
2022/05/16 05:18:33;;;;;;;4.20;3.80;;;16.80;31.30;;;;;;10351030;28;20222;-76
2022/05/16 05:23:38;;;;;;;4.23;3.83;;;16.80;31.00;;;;;;10350115;28;20230;-76
2022/05/16 05:28:43;;;;;;;4.67;4.20;;;16.90;31.10;;;;;;10354071;28;20300;-76
2022/05/16 05:33:46;;;;;;;4.17;3.80;;;17.00;32.10;;;;;;10355135;28;20230;-76
2022/05/16 05:38:51;;;;;;;5.77;4.23;;;17.10;31.20;;;;;;10350367;28;20234;-76
2022/05/16 05:43:56;;;;;;;4.20;3.90;;;17.20;31.30;;;;;;10346874;28;21069;-77
2022/05/16 05:48:59;;;;;;;5.13;3.30;;;17.30;32.20;;;;;;10353270;28;20241;-77
2022/05/16 05:54:02;;;;;;;4.13;3.83;;;17.40;31.70;;;;;;10351638;28;20230;-77
2022/05/16 05:59:07;;;;;;;4.27;3.97;;;17.50;31.60;;;;;;10355464;28;20230;-77
2022/05/16 06:04:11;;;;;;;4.60;4.20;;;17.70;32.40;;;;;;10359100;28;20230;-76
2022/05/16 06:09:15;;;;;;;4.77;4.30;;;17.90;32.00;;;;;;10358106;28;20223;-77
2022/05/16 06:14:19;;;;;;;5.43;4.93;;;18.00;32.80;;;;;;10363268;28;20230;-76
2022/05/16 06:19:22;;;;;;;4.53;4.23;;;18.20;32.60;;;;;;10360716;28;20237;-76
2022/05/16 06:29:48;;;;;;;4.47;4.17;;;18.60;32.20;;;;;;10363313;28;20770;-76
2022/05/16 06:34:51;;;;;;;4.37;4.00;;;18.80;32.30;;;;;;10362892;28;20226;-76
2022/05/16 06:39:54;;;;;;;4.37;3.97;;;19.10;32.30;;;;;;10359427;28;20233;-76
2022/05/16 06:44:59;;;;;;;4.30;4.00;;;19.30;32.00;;;;;;10359982;28;20230;-76
2022/05/16 06:50:02;;;;;;;4.23;3.83;;;19.40;32.40;;;;;;10359444;28;20705;-76
2022/05/16 06:55:06;;;;;;;5.33;3.50;;;19.70;31.80;;;;;;10361874;28;20321;-73
2022/05/16 07:00:12;;;;;;;5.97;3.83;;;19.80;31.80;;;;;;10332772;28;20218;-73
2022/05/16 07:05:16;;;;;;;4.87;3.97;;;20.00;32.30;;;;;;10333106;28;21030;-73
2022/05/16 07:10:20;;;;;;;4.43;4.03;;;20.20;31.70;;;;;;10337939;28;20348;-74
2022/05/16 07:15:24;;;;;;;4.07;3.77;;;20.40;31.50;;;;;;10334576;28;20901;-73
2022/05/16 07:20:28;;;;;;;4.40;4.00;;;20.60;31.40;;;;;;10341051;28;20956;-76
2022/05/16 07:27:56;;;;;;;5.83;4.10;;;20.80;31.50;;;;;;10340200;28;20301;-74
2022/05/16 07:30:56;;;;;;;4.20;3.80;;;20.90;31.30;;;;;;10340215;28;20238;-77
2022/05/16 07:35:59;;;;;;;5.27;3.87;;;21.00;31.50;;;;;;10339662;28;20227;-74
2022/05/16 07:41:03;;;;;;;4.00;3.70;;;21.10;31.10;;;;;;10343177;28;20713;-73
2022/05/16 07:46:08;;;;;;;8.63;3.87;;;21.30;31.20;;;;;;10345485;28;20423;-74
2022/05/16 07:51:11;;;;;;;3.83;3.53;;;21.30;31.30;;;;;;10351090;28;20598;-75
2022/05/16 07:56:15;;;;;;;5.67;3.90;;;21.40;31.30;;;;;;10350508;28;20244;-74
2022/05/16 08:01:19;;;;;;;3.63;3.30;;;21.60;31.00;;;;;;10352411;28;20222;-75
2022/05/16 08:06:26;;;;;;;4.20;3.80;;;21.70;31.40;;;;;;10342264;28;20737;-76
2022/05/16 08:11:30;;;;;;;4.50;4.10;;;21.90;31.20;;;;;;10348275;28;20244;-74
2022/05/16 08:16:35;;;;;;;4.07;3.67;;;22.10;31.20;;;;;;10350048;28;20222;-74
2022/05/16 08:21:39;;;;;;;4.10;3.70;;;22.30;30.80;;;;;;10350916;28;20868;-74
2022/05/16 08:26:42;;;;;;;3.90;3.50;;;22.50;30.80;;;;;;10351512;28;20602;-75
2022/05/16 08:31:47;;;;;;;7.43;4.23;;;22.80;30.60;;;;;;10363815;28;20228;-75
2022/05/16 08:42:14;;;;;;;4.10;3.80;;;23.10;30.10;;;;;;10358924;28;20626;-73
2022/05/16 08:47:29;;;;;;;6.97;4.37;;;23.30;30.00;;;;;;10360952;28;20462;-76
2022/05/16 08:52:40;;;;;;;5.60;3.90;;;23.40;29.90;;;;;;10354818;28;20633;-76
2022/05/16 08:57:51;;;;;;;4.20;3.70;;;23.60;30.00;;;;;;10352675;28;20223;-73
2022/05/16 09:02:59;;;;;;;4.47;3.73;;;23.70;30.00;;;;;;10352748;28;20219;-70
2022/05/16 09:08:05;;;;;;;3.57;3.10;;;23.90;29.90;;;;;;10352008;28;20219;-74
2022/05/16 09:13:21;;;;;;;3.37;3.00;;;24.10;29.90;;;;;;10347956;28;20781;-73
2022/05/16 09:18:34;;;;;;;3.73;3.20;;;24.20;29.80;;;;;;10350050;28;20234;-72
2022/05/16 09:23:49;;;;;;;4.80;3.20;;;24.30;29.60;;;;;;10348981;28;20237;-72
2022/05/16 09:28:59;;;;;;;3.50;2.87;;;24.30;29.80;;;;;;10350548;28;20234;-72
2022/05/16 09:34:04;;;;;;;3.27;2.70;;;24.40;30.00;;;;;;10352098;28;20222;-72
2022/05/16 09:39:09;;;;;;;3.07;2.70;;;24.40;30.00;;;;;;10359178;28;20225;-75
2022/05/16 09:44:23;;;;;;;3.20;3.00;;;24.40;30.00;;;;;;10360147;28;20305;-72
2022/05/16 09:49:28;;;;;;;4.40;3.30;;;24.50;29.70;;;;;;10363481;28;20222;-72
2022/05/16 09:54:35;;;;;;;3.13;2.87;;;24.40;30.30;;;;;;10365437;28;20237;-72
2022/05/16 09:59:43;;;;;;;3.77;3.07;;;24.40;30.10;;;;;;10355606;28;20252;-72
2022/05/16 10:04:51;;;;;;;3.97;2.83;;;24.30;30.20;;;;;;10366981;28;20725;-72
2022/05/16 10:09:56;;;;;;;3.40;2.90;;;24.20;30.30;;;;;;10354998;28;20232;-72
2022/05/16 10:15:00;;;;;;;3.40;2.90;;;24.10;30.30;;;;;;10354873;28;20222;-72
2022/05/16 10:20:10;;;;;;;3.73;3.13;;;23.90;30.40;;;;;;10357857;28;20751;-72
2022/05/16 10:25:18;;;;;;;2.77;2.57;;;23.90;31.80;;;;;;10351268;28;20240;-72
2022/05/16 10:30:26;;;;;;;3.17;2.87;;;23.80;31.60;;;;;;10356502;28;20723;-72
2022/05/16 10:35:34;;;;;;;3.97;3.10;;;23.70;31.90;;;;;;10357448;28;20702;-72
2022/05/16 10:40:40;;;;;;;3.40;3.10;;;23.60;31.90;;;;;;10354053;28;20224;-72
2022/05/16 10:45:48;;;;;;;3.33;2.97;;;23.50;32.00;;;;;;10358958;28;20237;-73
2022/05/16 10:51:01;;;;;;;3.13;2.93;;;23.50;32.70;;;;;;10355268;28;20238;-72
2022/05/16 10:56:09;;;;;;;3.83;2.60;;;23.50;33.70;;;;;;10357669;28;20235;-74
2022/05/16 11:01:17;;;;;;;2.90;2.70;;;23.50;33.20;;;;;;10359956;28;20357;-72
2022/05/16 11:06:50;;;;;;;2.63;2.33;;;23.40;33.40;;;;;;10352656;28;20983;-75
2022/05/16 11:11:59;;;;;;;3.40;2.67;;;23.40;33.70;;;;;;10354733;28;20230;-75
2022/05/16 11:17:09;;;;;;;2.80;2.60;;;23.30;34.40;;;;;;10354158;28;20226;-75
2022/05/16 11:22:20;;;;;;;3.10;2.80;;;23.30;33.60;;;;;;10363152;28;20226;-75
2022/05/16 11:27:32;;;;;;;3.33;2.80;;;23.30;34.40;;;;;;10356266;28;20230;-74
2022/05/16 11:32:46;;;;;;;3.23;2.90;;;23.30;34.80;;;;;;10367938;28;20240;-72
2022/05/16 11:38:18;;;;;;;2.70;2.50;;;23.40;34.70;;;;;;10359967;28;20234;-72
2022/05/16 11:43:25;;;;;;;2.53;2.33;;;23.50;34.30;;;;;;10355611;28;20698;-74
2022/05/16 11:48:36;;;;;;;2.57;2.30;;;23.60;34.30;;;;;;10362298;28;20230;-74
2022/05/16 11:54:04;;;;;;;2.50;2.33;;;23.60;34.10;;;;;;10360888;28;20816;-72
2022/05/16 12:04:43;;;;;;;2.40;2.30;;;23.70;34.30;;;;;;10347520;28;20234;-72
2022/05/16 12:10:01;;;;;;;3.03;2.80;;;23.70;34.00;;;;;;10347433;28;20317;-72
2022/05/16 12:15:27;;;;;;;3.17;2.87;;;23.90;34.00;;;;;;10337700;28;20452;-72
2022/05/16 12:20:59;;;;;;;3.80;2.73;;;24.00;33.90;;;;;;10342908;28;20647;-72
2022/05/16 12:26:09;;;;;;;3.00;2.73;;;24.10;33.80;;;;;;10351291;28;20226;-72
2022/05/16 12:31:13;;;;;;;3.60;2.97;;;24.30;34.00;;;;;;10350224;28;20226;-72
2022/05/16 12:36:18;;;;;;;2.67;2.47;;;24.50;33.20;;;;;;10344434;28;20229;-72
2022/05/16 12:41:53;;;;;;;3.07;2.60;;;24.60;33.20;;;;;;10339461;28;20235;-71
2022/05/16 12:47:28;;;;;;;2.80;2.60;;;24.70;33.10;;;;;;10343294;28;20733;-71
2022/05/16 12:52:59;;;;;;;3.73;2.90;;;24.90;33.20;;;;;;10343710;28;20304;-71
2022/05/16 12:58:11;;;;;;;3.57;2.70;;;25.10;32.90;;;;;;10349914;28;21177;-71
2022/05/16 13:03:39;;;;;;;2.60;2.40;;;25.40;32.60;;;;;;10348545;28;20223;-72
2022/05/16 13:08:47;;;;;;;3.03;2.50;;;25.60;32.60;;;;;;10347049;28;20230;-71
2022/05/16 13:14:03;;;;;;;3.83;2.60;;;25.70;31.90;;;;;;10359305;28;21717;-72
2022/05/16 13:19:11;;;;;;;2.70;2.50;;;26.00;32.50;;;;;;10330642;28;21111;-72
2022/05/16 13:24:18;;;;;;;2.87;2.60;;;26.20;31.60;;;;;;10353906;28;20233;-71
2022/05/16 13:29:23;;;;;;;2.47;2.27;;;26.30;31.00;;;;;;10350343;28;20834;-71
2022/05/16 13:34:32;;;;;;;3.67;3.27;;;26.50;31.10;;;;;;10343376;28;20234;-72
2022/05/16 13:39:39;;;;;;;3.27;2.97;;;26.60;30.60;;;;;;10315874;28;20615;-71
2022/05/16 13:44:45;;;;;;;2.70;2.50;;;26.80;30.80;;;;;;10310158;28;20234;-72
2022/05/16 13:49:49;;;;;;;2.80;2.60;;;26.80;30.20;;;;;;10319079;28;20237;-72
2022/05/16 13:54:56;;;;;;;3.10;2.90;;;26.80;30.20;;;;;;10312174;28;20586;-71
2022/05/16 14:00:13;;;;;;;3.37;2.90;;;26.80;30.00;;;;;;10310484;28;20228;-72
2022/05/16 14:05:26;;;;;;;2.90;2.70;;;26.80;29.60;;;;;;10307926;28;20314;-73
2022/05/16 14:10:37;;;;;;;3.13;2.80;;;26.90;29.70;;;;;;10293833;28;20235;-72
2022/05/16 14:15:48;;;;;;;3.20;3.00;;;27.00;29.70;;;;;;10300125;28;20826;-73
2022/05/16 14:20:55;;;;;;;2.90;2.70;;;27.00;29.70;;;;;;10340751;28;20218;-73
2022/05/16 14:26:12;;;;;;;4.03;3.20;;;27.00;29.00;;;;;;10339239;28;20250;-72
2022/05/16 14:31:24;;;;;;;3.57;2.70;;;27.10;27.70;;;;;;10324773;28;20226;-72
2022/05/16 14:36:34;;;;;;;6.17;2.83;;;27.10;28.30;;;;;;10332890;28;20234;-72
2022/05/16 14:41:51;;;;;;;5.87;2.90;;;27.10;28.30;;;;;;10335810;28;20230;-72
2022/05/16 14:47:03;;;;;;;2.87;2.30;;;27.00;28.50;;;;;;10338488;28;20660;-75
2022/05/16 14:52:07;;;;;;;3.70;2.40;;;26.70;27.60;;;;;;10322459;28;20309;-75
2022/05/16 14:57:11;;;;;;;4.67;2.47;;;26.20;28.40;;;;;;10321149;28;20230;-77
2022/05/16 15:07:42;;;;;;;3.20;2.20;;;25.00;29.80;;;;;;10296314;28;20241;-76
2022/05/16 15:12:45;;;;;;;2.83;2.10;;;24.50;30.90;;;;;;10296149;28;20233;-77
2022/05/16 15:17:50;;;;;;;4.27;2.10;;;24.00;30.80;;;;;;10319467;28;21058;-76
2022/05/16 15:22:53;;;;;;;3.07;2.10;;;23.70;32.10;;;;;;10312518;28;20796;-76
2022/05/16 15:27:57;;;;;;;4.83;2.30;;;23.40;31.70;;;;;;10304318;28;20638;-76
2022/05/16 15:33:01;;;;;;;3.03;2.10;;;23.30;32.30;;;;;;10305926;28;20223;-75
2022/05/16 15:38:06;;;;;;;2.83;2.20;;;23.20;33.20;;;;;;10302770;28;20229;-76
2022/05/16 15:43:09;;;;;;;4.43;2.57;;;23.20;33.10;;;;;;10310992;28;20381;-75
2022/05/16 15:48:15;;;;;;;6.63;2.70;;;23.00;33.20;;;;;;10342874;28;20233;-75
2022/05/16 15:53:19;;;;;;;7.30;2.60;;;22.90;34.70;;;;;;10343478;28;20277;-75
2022/05/16 15:58:22;;;;;;;4.60;2.80;;;22.80;34.00;;;;;;10338939;28;20230;-76
2022/05/16 16:09:01;;;;;;;3.87;2.30;;;22.60;35.90;;;;;;10309272;28;20242;-75
2022/05/16 16:14:04;;;;;;;4.13;2.20;;;22.70;35.10;;;;;;10306045;28;20361;-75
2022/05/16 16:19:22;;;;;;;4.63;1.93;;;22.80;35.20;;;;;;10312715;28;20299;-74
2022/05/16 16:24:26;;;;;;;2.60;2.10;;;22.90;36.30;;;;;;10329953;28;20236;-75
2022/05/16 16:29:31;;;;;;;2.10;1.97;;;23.00;35.30;;;;;;10365478;28;20229;-74
2022/05/16 16:34:36;;;;;;;2.47;2.23;;;23.10;35.40;;;;;;10318829;28;20253;-74
2022/05/16 16:39:39;;;;;;;2.53;2.30;;;23.20;36.40;;;;;;10316869;28;20223;-74
2022/05/16 16:44:42;;;;;;;4.07;2.50;;;23.20;35.80;;;;;;10316292;28;20761;-75
2022/05/16 16:49:46;;;;;;;2.67;2.43;;;23.30;36.00;;;;;;10352180;28;20214;-74
2022/05/16 17:00:14;;;;;;;4.47;2.73;;;23.30;36.20;;;;;;10324216;28;20700;-74
2022/05/16 17:05:21;;;;;;;4.07;2.57;;;23.50;37.00;;;;;;10335341;28;20603;-74
2022/05/16 17:10:29;;;;;;;4.17;2.50;;;23.60;37.50;;;;;;10330610;28;20272;-74
2022/05/16 17:15:32;;;;;;;3.00;2.23;;;23.60;36.90;;;;;;10320659;28;20230;-73
2022/05/16 17:20:37;;;;;;;3.33;2.10;;;23.60;36.20;;;;;;10320201;28;20227;-74
2022/05/16 17:25:41;;;;;;;2.60;2.40;;;23.70;36.70;;;;;;10360189;28;20241;-74
2022/05/16 17:30:47;;;;;;;2.10;1.90;;;23.70;36.30;;;;;;10353074;28;20230;-74
2022/05/16 17:35:52;;;;;;;2.37;2.17;;;23.70;36.30;;;;;;10344974;28;20238;-74
2022/05/16 17:40:55;;;;;;;3.50;2.53;;;23.70;36.80;;;;;;10355113;28;20237;-73
2022/05/16 17:45:58;;;;;;;4.03;2.13;;;23.60;36.10;;;;;;10358420;28;20241;-74
2022/05/16 17:51:04;;;;;;;2.50;2.30;;;23.50;36.40;;;;;;10353825;28;20229;-74
2022/05/16 17:56:07;;;;;;;3.57;2.97;;;23.40;37.40;;;;;;10352928;28;20245;-74
2022/05/16 18:01:12;;;;;;;3.30;2.63;;;23.30;36.90;;;;;;10363083;28;20218;-73
2022/05/16 18:06:17;;;;;;;2.73;2.30;;;23.30;37.30;;;;;;10358957;28;20234;-74
2022/05/16 18:16:40;;;;;;;2.13;1.90;;;23.30;37.10;;;;;;10364486;28;20240;-73
2022/05/16 18:21:46;;;;;;;2.60;1.90;;;23.30;36.90;;;;;;10347723;28;20770;-74
2022/05/16 18:26:49;;;;;;;4.17;2.00;;;23.20;37.00;;;;;;10303985;28;20242;-74
2022/05/16 18:31:53;;;;;;;3.10;1.93;;;23.10;36.70;;;;;;10308066;28;20237;-73
2022/05/16 18:36:57;;;;;;;2.50;1.83;;;23.00;37.00;;;;;;10313843;28;20235;-73
2022/05/16 18:52:45;;;;;;;2.17;1.90;;;23.00;36.70;;;;;;10347694;28;20721;-73
2022/05/16 18:57:49;;;;;;;3.03;1.83;;;23.00;37.20;;;;;;10335864;28;20231;-75
2022/05/16 19:03:09;;;;;;;2.10;1.90;;;22.90;36.60;;;;;;10311316;28;20366;-73
2022/05/16 19:08:14;;;;;;;1.90;1.80;;;22.80;36.70;;;;;;10309341;28;20227;-75
2022/05/16 19:13:17;;;;;;;2.67;1.90;;;22.70;36.80;;;;;;10315807;28;20235;-74
2022/05/16 19:18:21;;;;;;;4.03;1.90;;;22.60;36.60;;;;;;10306424;28;20952;-72
2022/05/16 19:23:26;;;;;;;2.80;1.90;;;22.50;36.70;;;;;;10307169;28;20246;-72
2022/05/16 19:33:50;;;;;;;2.20;1.53;;;22.50;37.10;;;;;;10341941;28;20234;-72
2022/05/16 19:39:00;;;;;;;1.80;1.70;;;22.50;37.10;;;;;;10355208;28;20309;-72
2022/05/16 19:44:07;;;;;;;2.10;1.80;;;22.50;38.20;;;;;;10332854;28;20231;-73
2022/05/16 19:49:12;;;;;;;2.27;1.90;;;22.50;38.20;;;;;;10343774;28;20249;-72
2022/05/16 19:54:22;;;;;;;4.40;2.03;;;22.50;38.30;;;;;;10366904;28;20292;-73
2022/05/16 19:59:25;;;;;;;3.47;1.90;;;22.50;38.00;;;;;;10366434;28;20226;-73
2022/05/16 20:04:29;;;;;;;3.80;2.00;;;22.50;37.40;;;;;;10366894;28;20630;-73
2022/05/16 20:09:33;;;;;;;3.90;2.10;;;22.40;37.50;;;;;;10366181;28;20229;-73
2022/05/16 20:14:36;;;;;;;3.37;2.27;;;22.40;38.60;;;;;;10366593;28;20223;-73
2022/05/16 20:19:40;;;;;;;4.00;2.80;;;22.30;37.90;;;;;;10365682;28;20722;-73
2022/05/16 20:30:11;;;;;;;2.73;2.50;;;22.20;38.40;;;;;;10324583;28;20309;-73
2022/05/16 20:35:22;;;;;;;2.90;2.40;;;22.10;38.40;;;;;;10324798;28;20243;-73
2022/05/16 20:40:28;;;;;;;3.20;2.27;;;22.10;38.90;;;;;;10324850;28;20242;-73
2022/05/16 20:45:32;;;;;;;2.50;2.30;;;22.00;38.30;;;;;;10324120;28;20604;-73
2022/05/16 20:50:37;;;;;;;3.00;2.30;;;21.90;38.20;;;;;;10324324;28;20231;-73
2022/05/16 20:55:43;;;;;;;3.17;2.40;;;21.90;38.20;;;;;;10334453;28;20244;-73
2022/05/16 21:01:06;;;;;;;3.47;2.07;;;21.80;38.70;;;;;;10347991;28;20234;-73
2022/05/16 21:06:10;;;;;;;3.63;2.43;;;21.60;38.00;;;;;;10357490;28;20255;-73
2022/05/16 21:11:14;;;;;;;4.00;2.40;;;21.50;38.30;;;;;;10362050;28;20234;-72
2022/05/16 21:16:18;;;;;;;3.43;2.20;;;21.50;40.00;;;;;;10361505;28;20257;-72
2022/05/16 21:21:23;;;;;;;2.80;2.60;;;21.40;39.10;;;;;;10360505;28;20284;-73
2022/05/16 21:26:27;;;;;;;4.13;2.40;;;21.30;39.30;;;;;;10361470;28;20240;-72
2022/05/16 21:31:31;;;;;;;3.17;2.43;;;21.20;40.10;;;;;;10363210;28;20229;-72
2022/05/16 21:36:34;;;;;;;2.50;2.30;;;21.20;39.70;;;;;;10369112;28;20293;-74
2022/05/16 21:41:39;;;;;;;2.43;2.23;;;21.10;39.90;;;;;;10369653;28;20317;-74
2022/05/16 21:46:45;;;;;;;5.93;2.37;;;21.10;40.80;;;;;;10368828;28;20281;-74
2022/05/16 21:51:48;;;;;;;2.00;1.90;;;20.90;40.00;;;;;;10369692;28;20229;-73
2022/05/16 21:56:53;;;;;;;2.07;1.83;;;20.80;40.30;;;;;;10369585;28;20234;-73
2022/05/16 22:01:56;;;;;;;1.87;1.70;;;20.60;41.30;;;;;;10370636;28;20737;-73
2022/05/16 22:06:59;;;;;;;3.33;2.20;;;20.50;40.70;;;;;;10371411;28;20226;-73
2022/05/16 22:12:08;;;;;;;3.67;2.13;;;20.40;41.00;;;;;;10371352;28;20237;-73
2022/05/16 22:17:11;;;;;;;4.37;2.33;;;20.20;43.30;;;;;;10370672;28;20230;-73
2022/05/16 22:22:15;;;;;;;2.90;2.10;;;20.10;41.40;;;;;;10370519;28;20246;-73
2022/05/16 22:27:19;;;;;;;2.67;2.10;;;20.00;41.50;;;;;;10369932;28;20238;-72
2022/05/16 22:32:22;;;;;;;4.47;2.07;;;20.00;42.30;;;;;;10369611;28;20230;-73
2022/05/16 22:37:26;;;;;;;2.83;2.07;;;20.00;41.60;;;;;;10369714;28;20230;-73
2022/05/16 22:42:32;;;;;;;3.07;2.07;;;19.90;41.70;;;;;;10366994;28;20386;-72
2022/05/16 22:47:35;;;;;;;2.53;2.07;;;19.90;42.60;;;;;;10367017;28;20243;-73
2022/05/16 22:52:38;;;;;;;4.17;2.43;;;19.90;41.70;;;;;;10369130;28;20238;-73
2022/05/16 22:57:43;;;;;;;2.60;2.40;;;19.90;41.70;;;;;;10367208;28;20948;-72
2022/05/16 23:08:07;;;;;;;2.63;2.43;;;19.90;41.90;;;;;;10368404;28;20230;-73
2022/05/16 23:13:12;;;;;;;2.40;2.20;;;19.90;42.10;;;;;;10368027;28;20836;-73
2022/05/16 23:18:15;;;;;;;3.03;2.50;;;19.90;42.60;;;;;;10368425;28;20234;-71
2022/05/16 23:23:19;;;;;;;3.53;2.60;;;19.90;42.00;;;;;;10368046;28;20599;-73
2022/05/16 23:28:24;;;;;;;5.27;2.80;;;20.00;42.30;;;;;;10367962;28;20302;-73
2022/05/16 23:33:27;;;;;;;4.90;2.93;;;20.00;42.60;;;;;;10367534;28;20711;-73
2022/05/16 23:38:30;;;;;;;4.70;2.93;;;20.00;41.90;;;;;;10367063;28;20241;-72
2022/05/16 23:43:35;;;;;;;4.10;3.00;;;19.90;42.00;;;;;;10366784;28;20234;-72
2022/05/16 23:48:38;;;;;;;3.40;3.10;;;19.90;42.70;;;;;;10366822;28;20234;-73
2022/05/16 23:53:41;;;;;;;3.10;2.80;;;19.90;42.20;;;;;;10365856;28;20730;-72
2022/05/16 23:58:46;;;;;;;3.10;2.90;;;19.90;42.30;;;;;;10366381;28;20252;-73
